createdAt,value
2016-10-31T00:00:45.140Z,77.3
2016-10-31T00:01:45.154Z,77.49
2016-10-31T00:02:45.163Z,77.3
2016-10-31T00:03:45.290Z,77.3
2016-10-31T00:04:45.198Z,77.11
2016-10-31T00:05:45.209Z,77.49
2016-10-31T00:06:45.224Z,77.49
2016-10-31T00:07:45.238Z,77.3
2016-10-31T00:08:45.249Z,77.11
2016-10-31T00:09:45.707Z,77.2
2016-10-31T00:10:45.289Z,77.49
2016-10-31T00:11:45.298Z,77.2
2016-10-31T00:12:45.315Z,77.39
2016-10-31T00:13:45.327Z,77.3
2016-10-31T00:14:45.339Z,77.49
2016-10-31T00:15:45.361Z,77.3
2016-10-31T00:16:45.378Z,77.49
2016-10-31T00:17:45.390Z,77.3
2016-10-31T00:18:45.401Z,77.49
2016-10-31T00:19:45.419Z,77.11
2016-10-31T00:20:45.431Z,77.11
2016-10-31T00:21:45.452Z,77.39
2016-10-31T00:22:45.458Z,77.3
2016-10-31T00:23:45.479Z,77.3
2016-10-31T00:24:45.493Z,77.58
2016-10-31T00:25:45.516Z,77.39
2016-10-31T00:26:45.523Z,77.01
2016-10-31T00:27:45.538Z,77.49
2016-10-31T00:28:45.555Z,77.49
2016-10-31T00:29:45.574Z,77.01
2016-10-31T00:30:45.584Z,77.01
2016-10-31T00:31:45.605Z,77.97
2016-10-31T00:32:45.612Z,77.77
2016-10-31T00:33:45.630Z,77.68
2016-10-31T00:34:45.641Z,77.77
2016-10-31T00:35:45.654Z,77.3
2016-10-31T00:36:45.671Z,77.3
2016-10-31T00:37:45.684Z,77.39
2016-10-31T00:38:45.698Z,78.06
2016-10-31T00:39:45.711Z,77.49
2016-10-31T00:40:45.731Z,77.58
2016-10-31T00:41:45.743Z,77.49
2016-10-31T00:42:45.761Z,78.06
2016-10-31T00:43:45.776Z,77.87
2016-10-31T00:44:45.795Z,77.77
2016-10-31T00:45:45.799Z,77.97
2016-10-31T00:46:45.823Z,78.06
2016-10-31T00:47:45.831Z,77.87
2016-10-31T00:48:45.848Z,77.87
2016-10-31T00:49:45.865Z,77.87
2016-10-31T00:50:45.879Z,77.87
2016-10-31T00:51:45.890Z,77.77
2016-10-31T00:52:45.907Z,77.97
2016-10-31T00:53:45.929Z,77.87
2016-10-31T00:54:45.940Z,77.77
2016-10-31T00:55:45.953Z,78.06
2016-10-31T00:56:45.963Z,77.77
2016-10-31T00:57:45.977Z,78.25
2016-10-31T00:58:45.990Z,77.97
2016-10-31T00:59:46.019Z,77.77
2016-10-31T01:00:46.029Z,77.77
2016-10-31T01:01:46.043Z,78.25
2016-10-31T01:02:46.059Z,78.34
2016-10-31T01:03:46.075Z,78.25
2016-10-31T01:04:46.084Z,77.87
2016-10-31T01:05:46.103Z,78.16
2016-10-31T01:06:46.112Z,78.16
2016-10-31T01:07:46.128Z,78.16
2016-10-31T01:08:46.147Z,78.06
2016-10-31T01:09:46.161Z,78.06
2016-10-31T01:10:46.171Z,77.87
2016-10-31T01:11:46.188Z,78.06
2016-10-31T01:12:46.208Z,78.25
2016-10-31T01:13:46.220Z,78.44
2016-10-31T01:14:46.236Z,78.44
2016-10-31T01:15:46.242Z,78.16
2016-10-31T01:16:46.264Z,78.25
2016-10-31T01:17:46.273Z,78.16
2016-10-31T01:18:46.291Z,78.44
2016-10-31T01:19:46.309Z,78.25
2016-10-31T01:20:46.324Z,78.44
2016-10-31T01:21:46.333Z,78.44
2016-10-31T01:22:46.366Z,78.34
2016-10-31T01:23:46.361Z,78.25
2016-10-31T01:24:46.374Z,78.34
2016-10-31T01:25:46.399Z,78.53
2016-10-31T01:26:46.407Z,78.44
2016-10-31T01:27:46.421Z,78.34
2016-10-31T01:28:46.442Z,78.34
2016-10-31T01:29:46.456Z,78.06
2016-10-31T01:30:46.467Z,78.34
2016-10-31T01:31:46.486Z,78.34
2016-10-31T01:32:46.498Z,78.34
2016-10-31T01:33:46.509Z,78.06
2016-10-31T01:34:46.525Z,78.44
2016-10-31T01:35:46.539Z,78.16
2016-10-31T01:36:46.559Z,78.63
2016-10-31T01:37:46.569Z,78.53
2016-10-31T01:38:46.587Z,78.63
2016-10-31T01:39:46.601Z,78.63
2016-10-31T01:40:46.609Z,78.34
2016-10-31T01:41:46.624Z,78.34
2016-10-31T01:42:46.642Z,78.44
2016-10-31T01:43:46.651Z,78.16
2016-10-31T01:44:46.670Z,78.34
2016-10-31T01:45:46.682Z,78.34
2016-10-31T01:46:46.704Z,78.34
2016-10-31T01:47:47.027Z,78.25
2016-10-31T01:48:46.730Z,78.34
2016-10-31T01:49:46.746Z,78.25
2016-10-31T01:50:46.754Z,77.87
2016-10-31T01:51:46.769Z,78.25
2016-10-31T01:52:46.785Z,78.25
2016-10-31T01:53:46.799Z,78.16
2016-10-31T01:54:46.815Z,78.25
2016-10-31T01:55:46.827Z,78.25
2016-10-31T01:56:46.844Z,78.34
2016-10-31T01:57:46.863Z,78.25
2016-10-31T01:58:46.876Z,78.06
2016-10-31T01:59:46.888Z,78.25
2016-10-31T02:00:46.902Z,78.06
2016-10-31T02:01:46.914Z,78.06
2016-10-31T02:02:46.935Z,78.16
2016-10-31T02:03:46.946Z,78.82
2016-10-31T02:04:46.959Z,78.82
2016-10-31T02:05:46.974Z,78.63
2016-10-31T02:06:46.986Z,78.91
2016-10-31T02:07:47.002Z,78.72
2016-10-31T02:08:47.025Z,78.91
2016-10-31T02:09:47.031Z,78.82
2016-10-31T02:10:47.050Z,78.53
2016-10-31T02:11:47.064Z,78.63
2016-10-31T02:12:47.388Z,78.72
2016-10-31T02:13:47.091Z,78.53
2016-10-31T02:14:47.105Z,78.63
2016-10-31T02:15:47.120Z,79.01
2016-10-31T02:16:47.134Z,78.53
2016-10-31T02:17:47.151Z,78.91
2016-10-31T02:18:47.163Z,78.53
2016-10-31T02:19:47.178Z,78.63
2016-10-31T02:20:47.504Z,78.53
2016-10-31T02:21:47.209Z,78.63
2016-10-31T02:22:47.222Z,78.63
2016-10-31T02:23:47.236Z,78.53
2016-10-31T02:24:47.255Z,78.63
2016-10-31T02:25:47.272Z,78.91
2016-10-31T02:26:47.282Z,78.63
2016-10-31T02:27:47.298Z,78.82
2016-10-31T02:28:47.313Z,78.82
2016-10-31T02:29:47.328Z,78.44
2016-10-31T02:30:47.341Z,78.63
2016-10-31T02:31:47.357Z,78.53
2016-10-31T02:32:47.374Z,78.44
2016-10-31T02:33:47.386Z,78.53
2016-10-31T02:34:47.402Z,78.53
2016-10-31T02:35:47.416Z,78.63
2016-10-31T02:36:47.429Z,78.63
2016-10-31T02:37:47.445Z,78.72
2016-10-31T02:38:47.461Z,78.63
2016-10-31T02:39:47.474Z,78.53
2016-10-31T02:40:47.494Z,79.01
2016-10-31T02:41:47.507Z,78.82
2016-10-31T02:42:47.522Z,79.01
2016-10-31T02:43:47.541Z,78.82
2016-10-31T02:44:47.549Z,78.91
2016-10-31T02:45:47.566Z,79.01
2016-10-31T02:46:47.580Z,78.82
2016-10-31T02:47:47.596Z,78.25
2016-10-31T02:48:47.610Z,79.01
2016-10-31T02:49:47.633Z,79.01
2016-10-31T02:50:47.648Z,78.91
2016-10-31T02:51:47.659Z,78.72
2016-10-31T02:52:47.672Z,79.11
2016-10-31T02:53:47.684Z,79.11
2016-10-31T02:54:47.700Z,79.01
2016-10-31T02:55:47.713Z,78.91
2016-10-31T02:56:47.761Z,79.01
2016-10-31T02:57:47.744Z,78.82
2016-10-31T02:58:47.762Z,78.82
2016-10-31T02:59:47.774Z,79.01
2016-10-31T03:00:47.789Z,78.91
2016-10-31T03:01:47.804Z,79.01
2016-10-31T03:02:47.821Z,79.01
2016-10-31T03:03:47.836Z,79.11
2016-10-31T03:04:47.884Z,79.24
2016-10-31T03:05:47.866Z,79.01
2016-10-31T03:06:47.877Z,79.11
2016-10-31T03:07:47.898Z,78.91
2016-10-31T03:08:47.922Z,78.91
2016-10-31T03:09:47.923Z,79.3
2016-10-31T03:10:47.937Z,78.91
2016-10-31T03:11:47.954Z,78.82
2016-10-31T03:12:48.008Z,78.82
2016-10-31T03:13:47.983Z,79.01
2016-10-31T03:14:47.998Z,78.77
2016-10-31T03:15:48.013Z,78.82
2016-10-31T03:16:48.031Z,79.2
2016-10-31T03:17:48.043Z,79.2
2016-10-31T03:18:48.088Z,78.91
2016-10-31T03:19:48.075Z,78.96
2016-10-31T03:20:48.089Z,79.14
2016-10-31T03:21:48.107Z,79.05
2016-10-31T03:22:48.118Z,78.96
2016-10-31T03:23:48.135Z,78.77
2016-10-31T03:24:48.147Z,78.77
2016-10-31T03:25:48.164Z,78.86
2016-10-31T03:26:48.178Z,78.86
2016-10-31T03:27:48.199Z,78.91
2016-10-31T03:28:48.207Z,78.96
2016-10-31T03:29:48.224Z,78.96
2016-10-31T03:30:48.238Z,78.77
2016-10-31T03:31:48.285Z,79.14
2016-10-31T03:32:48.273Z,79.24
2016-10-31T03:33:48.281Z,79.05
2016-10-31T03:34:48.300Z,79.14
2016-10-31T03:35:48.310Z,79.05
2016-10-31T03:36:48.327Z,79.05
2016-10-31T03:37:48.341Z,78.96
2016-10-31T03:38:48.355Z,79.24
2016-10-31T03:39:48.371Z,79.05
2016-10-31T03:40:48.386Z,78.96
2016-10-31T03:41:48.401Z,79.33
2016-10-31T03:42:48.415Z,79.05
2016-10-31T03:43:48.432Z,79.14
2016-10-31T03:44:48.449Z,79.05
2016-10-31T03:45:48.463Z,79.33
2016-10-31T03:46:48.475Z,79.33
2016-10-31T03:47:48.490Z,78.86
2016-10-31T03:48:48.508Z,79.05
2016-10-31T03:49:48.523Z,79.05
2016-10-31T03:50:48.535Z,78.96
2016-10-31T03:51:48.556Z,78.96
2016-10-31T03:52:48.568Z,78.86
2016-10-31T03:53:48.580Z,78.96
2016-10-31T03:54:48.596Z,79.14
2016-10-31T03:55:48.611Z,79.24
2016-10-31T03:56:48.626Z,78.96
2016-10-31T03:57:48.643Z,79.72
2016-10-31T03:58:48.656Z,79.14
2016-10-31T03:59:48.671Z,79.14
2016-10-31T04:00:48.688Z,79.43
2016-10-31T04:01:48.736Z,78.96
2016-10-31T04:02:48.718Z,79.52
2016-10-31T04:03:48.734Z,79.33
2016-10-31T04:04:48.748Z,79.52
2016-10-31T04:05:48.762Z,79.43
2016-10-31T04:06:48.779Z,79.52
2016-10-31T04:07:48.810Z,79.52
2016-10-31T04:08:48.806Z,79.62
2016-10-31T04:09:48.822Z,79.81
2016-10-31T04:10:48.837Z,79.62
2016-10-31T04:11:48.956Z,79.43
2016-10-31T04:12:48.869Z,79.43
2016-10-31T04:13:48.883Z,79.33
2016-10-31T04:14:48.899Z,79.43
2016-10-31T04:15:48.922Z,79.62
2016-10-31T04:16:48.929Z,79.62
2016-10-31T04:17:48.947Z,79.62
2016-10-31T04:18:48.958Z,79.52
2016-10-31T04:19:48.973Z,79.62
2016-10-31T04:20:48.991Z,79.72
2016-10-31T04:21:49.006Z,79.43
2016-10-31T04:22:49.022Z,79.81
2016-10-31T04:23:49.034Z,79.72
2016-10-31T04:24:49.048Z,79.62
2016-10-31T04:25:49.069Z,79.81
2016-10-31T04:26:49.079Z,79.62
2016-10-31T04:27:49.095Z,79.52
2016-10-31T04:28:49.108Z,79.81
2016-10-31T04:29:49.126Z,79.43
2016-10-31T04:30:49.138Z,79.33
2016-10-31T04:31:49.154Z,79.81
2016-10-31T04:32:49.169Z,79.72
2016-10-31T04:33:49.187Z,79.24
2016-10-31T04:34:49.201Z,79.14
2016-10-31T04:35:49.327Z,78.96
2016-10-31T04:36:49.230Z,78.86
2016-10-31T04:37:49.244Z,79.05
2016-10-31T04:38:49.299Z,79.14
2016-10-31T04:39:49.277Z,79.14
2016-10-31T04:40:49.294Z,79.05
2016-10-31T04:41:49.303Z,78.86
2016-10-31T04:42:49.320Z,79.05
2016-10-31T04:43:49.342Z,78.86
2016-10-31T04:44:49.351Z,79.14
2016-10-31T04:45:49.365Z,79.24
2016-10-31T04:46:49.382Z,78.96
2016-10-31T04:47:49.396Z,79.24
2016-10-31T04:48:49.411Z,79.33
2016-10-31T04:49:49.426Z,78.86
2016-10-31T04:50:49.441Z,79.05
2016-10-31T04:51:49.460Z,78.86
2016-10-31T04:52:49.469Z,78.86
2016-10-31T04:53:49.486Z,79.14
2016-10-31T04:54:49.501Z,79.14
2016-10-31T04:55:49.526Z,79.14
2016-10-31T04:56:49.532Z,79.24
2016-10-31T04:57:49.549Z,79.14
2016-10-31T04:58:49.562Z,79.33
2016-10-31T04:59:49.595Z,78.96
2016-10-31T05:00:49.592Z,79.05
2016-10-31T05:01:49.610Z,78.86
2016-10-31T05:02:49.623Z,78.67
2016-10-31T05:03:49.635Z,79.05
2016-10-31T05:04:49.656Z,79.14
2016-10-31T05:05:49.666Z,79.24
2016-10-31T05:06:49.685Z,78.96
2016-10-31T05:07:49.701Z,79.14
2016-10-31T05:08:49.713Z,79.24
2016-10-31T05:09:49.727Z,78.96
2016-10-31T05:10:49.744Z,79.24
2016-10-31T05:11:49.821Z,79.14
2016-10-31T05:12:49.775Z,79.05
2016-10-31T05:13:49.789Z,79.24
2016-10-31T05:14:49.807Z,78.96
2016-10-31T05:15:49.817Z,79.14
2016-10-31T05:16:49.833Z,79.14
2016-10-31T05:17:49.850Z,79.05
2016-10-31T05:18:49.864Z,78.96
2016-10-31T05:19:49.887Z,78.96
2016-10-31T05:20:49.898Z,78.86
2016-10-31T05:21:49.909Z,78.96
2016-10-31T05:22:49.932Z,79.05
2016-10-31T05:23:49.939Z,79.05
2016-10-31T05:24:49.956Z,79.05
2016-10-31T05:25:49.971Z,79.24
2016-10-31T05:26:49.985Z,79.33
2016-10-31T05:27:50.000Z,79.05
2016-10-31T05:28:50.016Z,78.77
2016-10-31T05:29:50.029Z,79.24
2016-10-31T05:30:50.045Z,78.96
2016-10-31T05:31:50.060Z,78.86
2016-10-31T05:32:50.075Z,79.14
2016-10-31T05:33:50.091Z,78.96
2016-10-31T05:34:50.106Z,78.86
2016-10-31T05:35:50.120Z,79.05
2016-10-31T05:36:50.135Z,78.86
2016-10-31T05:37:50.152Z,78.86
2016-10-31T05:38:50.173Z,79.24
2016-10-31T05:39:50.182Z,78.96
2016-10-31T05:40:50.196Z,78.67
2016-10-31T05:41:50.213Z,79.05
2016-10-31T05:42:50.228Z,79.14
2016-10-31T05:43:50.242Z,79.33
2016-10-31T05:44:50.259Z,79.05
2016-10-31T05:45:50.276Z,79.14
2016-10-31T05:46:50.292Z,78.86
2016-10-31T05:47:50.340Z,79.05
2016-10-31T05:48:50.319Z,79.43
2016-10-31T05:49:50.334Z,78.77
2016-10-31T05:50:50.347Z,79.24
2016-10-31T05:51:50.364Z,79.14
2016-10-31T05:52:50.382Z,78.96
2016-10-31T05:53:50.395Z,79.14
2016-10-31T05:54:50.411Z,79.14
2016-10-31T05:55:50.425Z,78.77
2016-10-31T05:56:50.440Z,78.77
2016-10-31T05:57:50.455Z,78.86
2016-10-31T05:58:50.474Z,78.96
2016-10-31T05:59:50.485Z,78.96
2016-10-31T06:00:50.501Z,79.24
2016-10-31T06:01:50.514Z,79.14
2016-10-31T06:02:50.531Z,79.14
2016-10-31T06:03:50.548Z,79.14
2016-10-31T06:04:50.559Z,78.96
2016-10-31T06:05:50.576Z,78.86
2016-10-31T06:06:50.595Z,79.05
2016-10-31T06:07:50.607Z,79.24
2016-10-31T06:08:50.621Z,79.33
2016-10-31T06:09:50.644Z,79.14
2016-10-31T06:10:50.654Z,78.96
2016-10-31T06:11:50.667Z,79.05
2016-10-31T06:12:50.683Z,78.96
2016-10-31T06:13:50.703Z,79.14
2016-10-31T06:14:50.712Z,79.24
2016-10-31T06:15:51.045Z,78.86
2016-10-31T06:16:50.746Z,78.86
2016-10-31T06:17:50.763Z,78.96
2016-10-31T06:18:50.776Z,78.86
2016-10-31T06:19:50.787Z,79.14
2016-10-31T06:20:50.803Z,78.77
2016-10-31T06:21:50.818Z,78.86
2016-10-31T06:22:50.831Z,78.96
2016-10-31T06:23:50.848Z,79.24
2016-10-31T06:24:50.864Z,79.24
2016-10-31T06:25:50.883Z,79.05
2016-10-31T06:26:50.895Z,78.96
2016-10-31T06:27:50.913Z,79.14
2016-10-31T06:28:50.923Z,79.14
2016-10-31T06:29:50.940Z,79.14
2016-10-31T06:30:50.953Z,78.86
2016-10-31T06:31:50.969Z,79.14
2016-10-31T06:32:50.987Z,78.96
2016-10-31T06:33:51.001Z,78.96
2016-10-31T06:34:51.016Z,78.96
2016-10-31T06:35:51.031Z,79.24
2016-10-31T06:36:51.044Z,78.96
2016-10-31T06:37:51.059Z,78.96
2016-10-31T06:38:51.075Z,79.72
2016-10-31T06:39:51.089Z,79.43
2016-10-31T06:40:51.106Z,79.33
2016-10-31T06:41:51.120Z,79.14
2016-10-31T06:42:51.134Z,79.52
2016-10-31T06:43:51.158Z,79.33
2016-10-31T06:44:51.168Z,79.05
2016-10-31T06:45:51.182Z,79.38
2016-10-31T06:46:51.200Z,79.33
2016-10-31T06:47:51.245Z,79.14
2016-10-31T06:48:51.231Z,79.19
2016-10-31T06:49:51.242Z,79.57
2016-10-31T06:50:51.256Z,79.57
2016-10-31T06:51:51.271Z,79.47
2016-10-31T06:52:51.286Z,79.75
2016-10-31T06:53:51.305Z,79.57
2016-10-31T06:54:51.315Z,79.85
2016-10-31T06:55:51.333Z,79.28
2016-10-31T06:56:51.346Z,79.47
2016-10-31T06:57:51.363Z,79.47
2016-10-31T06:58:51.377Z,79.57
2016-10-31T06:59:51.396Z,79.75
2016-10-31T07:00:51.408Z,79.57
2016-10-31T07:01:51.425Z,79.57
2016-10-31T07:02:51.442Z,79.28
2016-10-31T07:03:51.461Z,79.47
2016-10-31T07:04:51.469Z,79.57
2016-10-31T07:05:51.483Z,79.38
2016-10-31T07:06:51.501Z,79.75
2016-10-31T07:07:51.515Z,79.94
2016-10-31T07:08:51.532Z,79.66
2016-10-31T07:09:51.548Z,79.47
2016-10-31T07:10:51.561Z,79.57
2016-10-31T07:11:51.576Z,79.85
2016-10-31T07:12:51.592Z,79.38
2016-10-31T07:13:51.608Z,79.75
2016-10-31T07:14:51.625Z,79.66
2016-10-31T07:15:51.669Z,79.19
2016-10-31T07:16:51.654Z,79.66
2016-10-31T07:17:51.667Z,79.75
2016-10-31T07:18:51.716Z,79.47
2016-10-31T07:19:51.700Z,79.57
2016-10-31T07:20:51.714Z,79.66
2016-10-31T07:21:51.732Z,79.47
2016-10-31T07:22:51.753Z,79.85
2016-10-31T07:23:51.760Z,79.47
2016-10-31T07:24:51.816Z,79.85
2016-10-31T07:25:51.791Z,79.85
2016-10-31T07:26:51.808Z,79.85
2016-10-31T07:27:51.824Z,79.75
2016-10-31T07:28:51.838Z,79.38
2016-10-31T07:29:51.899Z,79.66
2016-10-31T07:30:51.881Z,79.66
2016-10-31T07:31:51.882Z,79.85
2016-10-31T07:32:51.899Z,79.66
2016-10-31T07:33:51.915Z,79.66
2016-10-31T07:34:51.928Z,79.47
2016-10-31T07:35:51.944Z,79.94
2016-10-31T07:36:51.961Z,79.66
2016-10-31T07:37:51.974Z,79.47
2016-10-31T07:38:51.992Z,79.75
2016-10-31T07:39:52.009Z,79.94
2016-10-31T07:40:52.025Z,80.13
2016-10-31T07:41:52.053Z,80.13
2016-10-31T07:42:52.056Z,79.75
2016-10-31T07:43:52.071Z,80.23
2016-10-31T07:44:52.083Z,80.04
2016-10-31T07:45:52.098Z,80.23
2016-10-31T07:46:52.114Z,80.23
2016-10-31T07:47:52.136Z,79.94
2016-10-31T07:48:52.147Z,80.13
2016-10-31T07:49:52.162Z,80.13
2016-10-31T07:50:52.179Z,80.04
2016-10-31T07:51:52.191Z,79.85
2016-10-31T07:52:52.208Z,80.04
2016-10-31T07:53:52.224Z,80.04
2016-10-31T07:54:52.241Z,80.23
2016-10-31T07:55:52.254Z,80.23
2016-10-31T07:56:52.272Z,79.75
2016-10-31T07:57:52.284Z,80.13
2016-10-31T07:58:52.300Z,80.13
2016-10-31T07:59:52.316Z,79.66
2016-10-31T08:00:52.340Z,80.33
2016-10-31T08:01:52.348Z,79.75
2016-10-31T08:02:52.365Z,80.33
2016-10-31T08:03:52.380Z,80.33
2016-10-31T08:04:52.401Z,80.33
2016-10-31T08:05:52.411Z,80.27
2016-10-31T08:06:52.427Z,80.04
2016-10-31T08:07:52.440Z,80.18
2016-10-31T08:08:52.458Z,79.99
2016-10-31T08:09:52.472Z,80.65
2016-10-31T08:10:52.488Z,79.99
2016-10-31T08:11:52.503Z,79.94
2016-10-31T08:12:52.523Z,79.75
2016-10-31T08:13:52.537Z,80.08
2016-10-31T08:14:52.555Z,80.18
2016-10-31T08:15:52.565Z,80.18
2016-10-31T08:16:52.583Z,80.08
2016-10-31T08:17:52.599Z,79.99
2016-10-31T08:18:52.623Z,79.99
2016-10-31T08:19:52.629Z,79.99
2016-10-31T08:20:52.643Z,79.99
2016-10-31T08:21:52.659Z,80.08
2016-10-31T08:22:52.685Z,80.08
2016-10-31T08:23:52.692Z,80.08
2016-10-31T08:24:52.706Z,80.36
2016-10-31T08:25:52.724Z,79.89
2016-10-31T08:26:52.739Z,80.36
2016-10-31T08:27:52.754Z,80.18
2016-10-31T08:28:52.770Z,80.27
2016-10-31T08:29:52.788Z,80.27
2016-10-31T08:30:52.809Z,80.18
2016-10-31T08:31:52.821Z,80.08
2016-10-31T08:32:52.832Z,79.6
2016-10-31T08:33:52.848Z,79.6
2016-10-31T08:34:52.874Z,79.51
2016-10-31T08:35:53.431Z,79.6
2016-10-31T08:36:52.895Z,80.27
2016-10-31T08:37:52.913Z,80.18
2016-10-31T08:38:52.926Z,80.36
2016-10-31T08:39:52.943Z,79.89
2016-10-31T08:40:52.963Z,79.51
2016-10-31T08:41:52.974Z,79.51
2016-10-31T08:42:52.992Z,79.89
2016-10-31T08:43:53.007Z,79.7
2016-10-31T08:44:53.021Z,79.6
2016-10-31T08:45:53.042Z,79.8
2016-10-31T08:46:53.055Z,79.8
2016-10-31T08:47:53.070Z,79.8
2016-10-31T08:48:53.086Z,79.8
2016-10-31T08:49:53.101Z,79.51
2016-10-31T08:50:53.115Z,79.36
2016-10-31T08:51:53.132Z,79.6
2016-10-31T08:52:53.148Z,79.51
2016-10-31T08:53:53.167Z,79.83
2016-10-31T08:54:53.178Z,79.64
2016-10-31T08:55:53.198Z,79.64
2016-10-31T08:56:53.216Z,79.55
2016-10-31T08:57:53.235Z,79.74
2016-10-31T08:58:53.245Z,79.55
2016-10-31T08:59:53.263Z,79.17
2016-10-31T09:00:53.276Z,79.27
2016-10-31T09:01:53.295Z,79.17
2016-10-31T09:02:53.311Z,79.55
2016-10-31T09:03:53.325Z,79.07
2016-10-31T09:04:53.345Z,79.36
2016-10-31T09:05:53.358Z,79.27
2016-10-31T09:06:53.375Z,79.55
2016-10-31T09:07:53.390Z,79.36
2016-10-31T09:08:53.405Z,79.36
2016-10-31T09:09:53.423Z,79.17
2016-10-31T09:10:53.444Z,79.17
2016-10-31T09:11:53.454Z,78.98
2016-10-31T09:12:53.471Z,79.17
2016-10-31T09:13:53.485Z,78.88
2016-10-31T09:14:53.505Z,78.78
2016-10-31T09:15:53.518Z,79.07
2016-10-31T09:16:53.544Z,78.98
2016-10-31T09:17:53.551Z,79.36
2016-10-31T09:18:53.567Z,79.46
2016-10-31T09:19:53.588Z,79.07
2016-10-31T09:20:53.599Z,79.27
2016-10-31T09:21:53.617Z,78.98
2016-10-31T09:22:53.633Z,79.17
2016-10-31T09:23:53.650Z,79.07
2016-10-31T09:24:53.667Z,79.83
2016-10-31T09:25:53.683Z,79.27
2016-10-31T09:26:53.697Z,78.88
2016-10-31T09:27:53.716Z,78.98
2016-10-31T09:28:53.729Z,79.17
2016-10-31T09:29:53.745Z,79.27
2016-10-31T09:30:53.762Z,79.36
2016-10-31T09:31:53.779Z,79.55
2016-10-31T09:32:53.794Z,79.36
2016-10-31T09:33:53.812Z,79.46
2016-10-31T09:34:53.834Z,79.74
2016-10-31T09:35:53.841Z,79.74
2016-10-31T09:36:53.861Z,79.74
2016-10-31T09:37:53.873Z,79.46
2016-10-31T09:38:53.895Z,79.74
2016-10-31T09:39:53.909Z,78.98
2016-10-31T09:40:53.922Z,79.07
2016-10-31T09:41:53.943Z,78.98
2016-10-31T09:42:53.958Z,79.3
2016-10-31T09:43:53.971Z,79.3
2016-10-31T09:44:53.986Z,79.02
2016-10-31T09:45:54.002Z,79.3
2016-10-31T09:46:54.020Z,79.21
2016-10-31T09:47:54.038Z,79.02
2016-10-31T09:48:54.052Z,79.3
2016-10-31T09:49:54.079Z,79.59
2016-10-31T09:50:54.087Z,79.11
2016-10-31T09:51:54.102Z,79.68
2016-10-31T09:52:54.125Z,79.3
2016-10-31T09:53:54.135Z,79.11
2016-10-31T09:54:54.153Z,79.3
2016-10-31T09:55:54.166Z,78.83
2016-10-31T09:56:54.188Z,79.02
2016-10-31T09:57:54.201Z,79.3
2016-10-31T09:58:54.220Z,79.4
2016-10-31T09:59:54.233Z,79.59
2016-10-31T10:00:54.251Z,79.3
2016-10-31T10:01:54.265Z,79.02
2016-10-31T10:02:54.281Z,79.11
2016-10-31T10:03:54.302Z,79.4
2016-10-31T10:04:54.320Z,79.21
2016-10-31T10:05:54.333Z,79.59
2016-10-31T10:06:54.349Z,79.3
2016-10-31T10:07:54.367Z,79.02
2016-10-31T10:08:54.381Z,79.4
2016-10-31T10:09:54.400Z,79.49
2016-10-31T10:10:54.734Z,79.21
2016-10-31T10:11:54.454Z,79.59
2016-10-31T10:12:54.451Z,79.53
2016-10-31T10:13:54.486Z,79.63
2016-10-31T10:14:54.485Z,79.21
2016-10-31T10:15:54.502Z,79.68
2016-10-31T10:16:54.514Z,79.63
2016-10-31T10:17:54.530Z,79.91
2016-10-31T10:18:54.549Z,79.63
2016-10-31T10:19:54.567Z,79.53
2016-10-31T10:20:54.586Z,79.44
2016-10-31T10:21:54.598Z,79.63
2016-10-31T10:22:54.621Z,79.35
2016-10-31T10:23:54.632Z,79.44
2016-10-31T10:24:54.648Z,79.15
2016-10-31T10:25:54.667Z,79.25
2016-10-31T10:26:54.689Z,79.44
2016-10-31T10:27:54.702Z,79.15
2016-10-31T10:28:54.715Z,79.53
2016-10-31T10:29:54.735Z,79.35
2016-10-31T10:30:54.753Z,79.25
2016-10-31T10:31:54.767Z,79.35
2016-10-31T10:32:54.795Z,79.25
2016-10-31T10:33:54.802Z,79.53
2016-10-31T10:34:54.819Z,79.44
2016-10-31T10:35:54.833Z,79.35
2016-10-31T10:36:54.856Z,79.35
2016-10-31T10:37:54.870Z,79.63
2016-10-31T10:38:54.889Z,79.25
2016-10-31T10:39:54.904Z,79.25
2016-10-31T10:40:54.919Z,79.44
2016-10-31T10:41:54.935Z,79.53
2016-10-31T10:42:54.957Z,79.15
2016-10-31T10:43:54.974Z,79.15
2016-10-31T10:44:54.991Z,79.44
2016-10-31T10:45:55.006Z,79.63
2016-10-31T10:46:55.022Z,79.15
2016-10-31T10:47:55.041Z,79.15
2016-10-31T10:48:55.056Z,79.35
2016-10-31T10:49:55.074Z,78.96
2016-10-31T10:50:55.092Z,79.25
2016-10-31T10:51:55.111Z,79.15
2016-10-31T10:52:55.130Z,79.15
2016-10-31T10:53:55.142Z,78.96
2016-10-31T10:54:55.158Z,78.86
2016-10-31T10:55:55.175Z,79.25
2016-10-31T10:56:55.231Z,79.15
2016-10-31T10:57:55.211Z,79.25
2016-10-31T10:58:55.226Z,79.25
2016-10-31T10:59:55.246Z,79.06
2016-10-31T11:00:55.263Z,79.06
2016-10-31T11:01:55.278Z,79.53
2016-10-31T11:02:55.330Z,79
2016-10-31T11:03:55.312Z,79.28
2016-10-31T11:04:55.331Z,79.19
2016-10-31T11:05:55.346Z,79
2016-10-31T11:06:55.364Z,79.1
2016-10-31T11:07:55.412Z,79.48
2016-10-31T11:08:55.397Z,79.19
2016-10-31T11:09:55.414Z,79.1
2016-10-31T11:10:55.432Z,79.38
2016-10-31T11:11:55.453Z,78.81
2016-10-31T11:12:55.472Z,78.72
2016-10-31T11:13:55.484Z,78.72
2016-10-31T11:14:55.502Z,78.33
2016-10-31T11:15:55.518Z,78.52
2016-10-31T11:16:55.535Z,79
2016-10-31T11:17:55.555Z,78.62
2016-10-31T11:18:55.572Z,78.52
2016-10-31T11:19:55.588Z,78.52
2016-10-31T11:20:55.609Z,78.52
2016-10-31T11:21:55.625Z,78.33
2016-10-31T11:22:55.643Z,78.62
2016-10-31T11:23:55.658Z,78.52
2016-10-31T11:24:55.678Z,78.81
2016-10-31T11:25:55.694Z,78.62
2016-10-31T11:26:55.709Z,78.62
2016-10-31T11:27:55.729Z,78.52
2016-10-31T11:28:55.755Z,78.23
2016-10-31T11:29:55.764Z,78.23
2016-10-31T11:30:55.778Z,78.23
2016-10-31T11:31:55.797Z,78.37
2016-10-31T11:32:55.819Z,78.33
2016-10-31T11:33:55.834Z,78.72
2016-10-31T11:34:55.849Z,78.28
2016-10-31T11:35:55.865Z,77.8
2016-10-31T11:36:56.232Z,77.89
2016-10-31T11:37:55.921Z,77.7
2016-10-31T11:38:56.304Z,77.8
2016-10-31T11:39:56.277Z,77.51
2016-10-31T11:40:56.395Z,76.75
2016-10-31T11:41:56.040Z,76.37
2016-10-31T11:42:56.398Z,76.37
2016-10-31T11:43:56.030Z,76.18
2016-10-31T11:44:56.484Z,75.98
2016-10-31T11:45:56.042Z,76.46
2016-10-31T11:46:56.538Z,76.46
2016-10-31T11:47:56.091Z,75.89
2016-10-31T11:48:56.109Z,76.18
2016-10-31T11:49:56.129Z,75.51
2016-10-31T11:50:56.129Z,75.7
2016-10-31T11:51:56.203Z,75.6
2016-10-31T11:52:56.166Z,75.6
2016-10-31T11:53:56.187Z,75.13
2016-10-31T11:54:56.200Z,75.13
2016-10-31T11:55:56.231Z,74.84
2016-10-31T11:56:56.239Z,75.22
2016-10-31T11:57:56.255Z,74.55
2016-10-31T11:58:56.281Z,74.93
2016-10-31T11:59:56.299Z,74.27
2016-10-31T12:00:56.312Z,74.93
2016-10-31T12:01:56.329Z,74.74
2016-10-31T12:02:56.350Z,74.3
2016-10-31T12:03:56.364Z,74.11
2016-10-31T12:04:56.381Z,74.78
2016-10-31T12:05:56.402Z,74.4
2016-10-31T12:06:56.417Z,74.59
2016-10-31T12:07:56.434Z,74.3
2016-10-31T12:08:56.454Z,74.4
2016-10-31T12:09:56.471Z,74.49
2016-10-31T12:10:56.527Z,74.49
2016-10-31T12:11:56.506Z,74.4
2016-10-31T12:12:56.563Z,74.4
2016-10-31T12:13:56.547Z,74.21
2016-10-31T12:14:56.560Z,73.92
2016-10-31T12:15:56.580Z,74.21
2016-10-31T12:16:56.597Z,73.63
2016-10-31T12:17:56.615Z,73.92
2016-10-31T12:18:56.632Z,74.02
2016-10-31T12:19:56.655Z,74.02
2016-10-31T12:20:56.668Z,73.54
2016-10-31T12:21:56.688Z,73.54
2016-10-31T12:22:56.707Z,73.92
2016-10-31T12:23:56.724Z,73.92
2016-10-31T12:24:56.741Z,73.48
2016-10-31T12:25:56.758Z,73.96
2016-10-31T12:26:56.779Z,73.58
2016-10-31T12:27:56.796Z,73.48
2016-10-31T12:28:56.813Z,73.16
2016-10-31T12:29:56.866Z,73.77
2016-10-31T12:30:56.854Z,73.54
2016-10-31T12:31:57.039Z,73.39
2016-10-31T12:32:56.887Z,73.58
2016-10-31T12:33:56.904Z,73.96
2016-10-31T12:34:56.923Z,73.96
2016-10-31T12:35:56.942Z,73.19
2016-10-31T12:36:56.963Z,73.86
2016-10-31T12:37:56.980Z,73.58
2016-10-31T12:38:56.995Z,73.48
2016-10-31T12:39:57.015Z,73.48
2016-10-31T12:40:57.081Z,73.29
2016-10-31T12:41:57.053Z,73.58
2016-10-31T12:42:57.075Z,73.86
2016-10-31T12:43:57.088Z,73.96
2016-10-31T12:44:57.107Z,73.67
2016-10-31T12:45:57.128Z,74.34
2016-10-31T12:46:57.144Z,73.86
2016-10-31T12:47:57.161Z,73.86
2016-10-31T12:48:57.179Z,73.48
2016-10-31T12:49:57.203Z,73.29
2016-10-31T12:50:57.219Z,73.86
2016-10-31T12:51:57.236Z,73.39
2016-10-31T12:52:57.262Z,73.58
2016-10-31T12:53:57.272Z,73.77
2016-10-31T12:54:57.290Z,73.48